sensor_id;sensor_type;location;lat;lon;timestamp;P1;durP1;ratioP1;P2;durP2;ratioP2
25351;SDS011;13304;48.464;8.712;2023-03-01T00:01:09;28.67;;;15.57;;
25351;SDS011;13304;48.464;8.712;2023-03-01T00:03:37;28.30;;;15.43;;
25351;SDS011;13304;48.464;8.712;2023-03-01T00:06:03;29.30;;;15.53;;
25351;SDS011;13304;48.464;8.712;2023-03-01T00:08:29;26.40;;;16.20;;
25351;SDS011;13304;48.464;8.712;2023-03-01T00:11:03;29.00;;;16.33;;
25351;SDS011;13304;48.464;8.712;2023-03-01T00:13:30;29.97;;;15.00;;
25351;SDS011;13304;48.464;8.712;2023-03-01T00:15:56;27.93;;;16.00;;
25351;SDS011;13304;48.464;8.712;2023-03-01T00:18:22;30.60;;;15.33;;
25351;SDS011;13304;48.464;8.712;2023-03-01T00:20:49;31.53;;;15.97;;
25351;SDS011;13304;48.464;8.712;2023-03-01T00:23:19;27.43;;;15.50;;
25351;SDS011;13304;48.464;8.712;2023-03-01T00:25:45;27.27;;;15.13;;
25351;SDS011;13304;48.464;8.712;2023-03-01T00:28:11;30.13;;;15.40;;
25351;SDS011;13304;48.464;8.712;2023-03-01T00:30:37;34.27;;;15.40;;
25351;SDS011;13304;48.464;8.712;2023-03-01T00:33:03;29.67;;;16.20;;
25351;SDS011;13304;48.464;8.712;2023-03-01T00:35:28;31.47;;;15.50;;
25351;SDS011;13304;48.464;8.712;2023-03-01T00:37:54;28.53;;;16.13;;
25351;SDS011;13304;48.464;8.712;2023-03-01T00:40:26;25.80;;;15.70;;
25351;SDS011;13304;48.464;8.712;2023-03-01T00:42:53;25.03;;;15.40;;
25351;SDS011;13304;48.464;8.712;2023-03-01T00:45:19;32.27;;;14.80;;
25351;SDS011;13304;48.464;8.712;2023-03-01T00:47:45;30.33;;;15.33;;
25351;SDS011;13304;48.464;8.712;2023-03-01T00:50:11;30.03;;;16.67;;
25351;SDS011;13304;48.464;8.712;2023-03-01T00:52:37;27.47;;;15.33;;
25351;SDS011;13304;48.464;8.712;2023-03-01T00:55:03;26.60;;;15.63;;
25351;SDS011;13304;48.464;8.712;2023-03-01T00:57:30;28.63;;;15.67;;
25351;SDS011;13304;48.464;8.712;2023-03-01T00:59:56;25.30;;;14.90;;
25351;SDS011;13304;48.464;8.712;2023-03-01T01:02:21;31.10;;;16.57;;
25351;SDS011;13304;48.464;8.712;2023-03-01T01:04:47;29.37;;;15.93;;
25351;SDS011;13304;48.464;8.712;2023-03-01T01:07:14;33.07;;;17.03;;
25351;SDS011;13304;48.464;8.712;2023-03-01T01:09:40;29.47;;;16.57;;
25351;SDS011;13304;48.464;8.712;2023-03-01T01:12:06;29.93;;;16.80;;
25351;SDS011;13304;48.464;8.712;2023-03-01T01:14:32;29.73;;;16.23;;
25351;SDS011;13304;48.464;8.712;2023-03-01T01:16:58;28.60;;;16.10;;
25351;SDS011;13304;48.464;8.712;2023-03-01T01:19:24;31.23;;;15.90;;
25351;SDS011;13304;48.464;8.712;2023-03-01T01:21:50;30.87;;;15.67;;
25351;SDS011;13304;48.464;8.712;2023-03-01T01:24:16;28.53;;;16.00;;
25351;SDS011;13304;48.464;8.712;2023-03-01T01:26:43;30.87;;;16.60;;
25351;SDS011;13304;48.464;8.712;2023-03-01T01:29:09;27.07;;;15.57;;
25351;SDS011;13304;48.464;8.712;2023-03-01T01:31:37;28.60;;;16.30;;
25351;SDS011;13304;48.464;8.712;2023-03-01T01:34:04;32.70;;;15.27;;
25351;SDS011;13304;48.464;8.712;2023-03-01T01:36:31;33.33;;;16.87;;
25351;SDS011;13304;48.464;8.712;2023-03-01T01:38:58;27.90;;;15.93;;
25351;SDS011;13304;48.464;8.712;2023-03-01T01:41:25;33.87;;;17.17;;
25351;SDS011;13304;48.464;8.712;2023-03-01T01:44:12;35.00;;;16.90;;
25351;SDS011;13304;48.464;8.712;2023-03-01T01:51:41;30.15;;;17.08;;
25351;SDS011;13304;48.464;8.712;2023-03-01T01:54:18;31.70;;;17.10;;
25351;SDS011;13304;48.464;8.712;2023-03-01T01:56:56;34.77;;;16.97;;
25351;SDS011;13304;48.464;8.712;2023-03-01T01:59:26;29.97;;;16.80;;
25351;SDS011;13304;48.464;8.712;2023-03-01T02:01:55;31.13;;;16.33;;
25351;SDS011;13304;48.464;8.712;2023-03-01T02:04:24;31.67;;;16.60;;
25351;SDS011;13304;48.464;8.712;2023-03-01T02:07:01;31.50;;;17.07;;
25351;SDS011;13304;48.464;8.712;2023-03-01T02:09:32;33.97;;;18.27;;
25351;SDS011;13304;48.464;8.712;2023-03-01T02:11:59;34.67;;;18.13;;
25351;SDS011;13304;48.464;8.712;2023-03-01T02:14:26;34.00;;;18.23;;
25351;SDS011;13304;48.464;8.712;2023-03-01T02:16:52;37.00;;;19.20;;
25351;SDS011;13304;48.464;8.712;2023-03-01T02:19:41;35.77;;;18.43;;
25351;SDS011;13304;48.464;8.712;2023-03-01T02:22:20;34.97;;;18.47;;
25351;SDS011;13304;48.464;8.712;2023-03-01T02:24:57;35.43;;;18.67;;
25351;SDS011;13304;48.464;8.712;2023-03-01T02:30:29;35.20;;;17.43;;
25351;SDS011;13304;48.464;8.712;2023-03-01T02:32:57;34.57;;;18.30;;
25351;SDS011;13304;48.464;8.712;2023-03-01T02:35:36;31.33;;;17.33;;
25351;SDS011;13304;48.464;8.712;2023-03-01T02:38:06;34.27;;;17.90;;
25351;SDS011;13304;48.464;8.712;2023-03-01T02:40:33;37.43;;;19.30;;
25351;SDS011;13304;48.464;8.712;2023-03-01T02:43:01;34.23;;;19.60;;
25351;SDS011;13304;48.464;8.712;2023-03-01T02:45:29;31.00;;;17.73;;
25351;SDS011;13304;48.464;8.712;2023-03-01T02:47:55;34.10;;;18.47;;
25351;SDS011;13304;48.464;8.712;2023-03-01T02:56:27;28.53;;;16.70;;
25351;SDS011;13304;48.464;8.712;2023-03-01T02:58:54;30.63;;;17.40;;
25351;SDS011;13304;48.464;8.712;2023-03-01T03:01:20;32.03;;;17.27;;
25351;SDS011;13304;48.464;8.712;2023-03-01T03:03:46;32.77;;;17.73;;
25351;SDS011;13304;48.464;8.712;2023-03-01T03:06:12;32.30;;;17.07;;
25351;SDS011;13304;48.464;8.712;2023-03-01T03:08:38;32.93;;;18.17;;
25351;SDS011;13304;48.464;8.712;2023-03-01T03:11:04;29.87;;;17.70;;
25351;SDS011;13304;48.464;8.712;2023-03-01T03:13:30;31.23;;;16.93;;
25351;SDS011;13304;48.464;8.712;2023-03-01T03:15:57;34.43;;;17.53;;
25351;SDS011;13304;48.464;8.712;2023-03-01T03:18:23;30.63;;;17.80;;
25351;SDS011;13304;48.464;8.712;2023-03-01T03:20:52;31.65;;;17.05;;
25351;SDS011;13304;48.464;8.712;2023-03-01T03:23:19;34.60;;;16.93;;
25351;SDS011;13304;48.464;8.712;2023-03-01T03:25:49;33.67;;;18.10;;
25351;SDS011;13304;48.464;8.712;2023-03-01T03:28:16;30.70;;;18.17;;
25351;SDS011;13304;48.464;8.712;2023-03-01T03:30:42;33.67;;;18.30;;
25351;SDS011;13304;48.464;8.712;2023-03-01T03:33:09;33.13;;;17.93;;
25351;SDS011;13304;48.464;8.712;2023-03-01T03:35:46;31.57;;;17.60;;
25351;SDS011;13304;48.464;8.712;2023-03-01T03:38:14;30.23;;;16.40;;
25351;SDS011;13304;48.464;8.712;2023-03-01T03:40:52;41.63;;;19.57;;
25351;SDS011;13304;48.464;8.712;2023-03-01T03:43:29;29.93;;;17.10;;
25351;SDS011;13304;48.464;8.712;2023-03-01T03:45:56;35.00;;;17.90;;
25351;SDS011;13304;48.464;8.712;2023-03-01T03:48:22;30.07;;;17.07;;
25351;SDS011;13304;48.464;8.712;2023-03-01T03:50:53;34.47;;;19.03;;
25351;SDS011;13304;48.464;8.712;2023-03-01T03:53:20;32.23;;;17.67;;
25351;SDS011;13304;48.464;8.712;2023-03-01T03:55:48;32.73;;;17.57;;
25351;SDS011;13304;48.464;8.712;2023-03-01T03:58:15;33.07;;;17.77;;
25351;SDS011;13304;48.464;8.712;2023-03-01T04:00:45;29.33;;;17.17;;
25351;SDS011;13304;48.464;8.712;2023-03-01T04:03:12;32.13;;;17.40;;
25351;SDS011;13304;48.464;8.712;2023-03-01T04:05:40;30.70;;;16.87;;
25351;SDS011;13304;48.464;8.712;2023-03-01T04:08:06;36.03;;;18.23;;
25351;SDS011;13304;48.464;8.712;2023-03-01T04:10:40;28.30;;;16.57;;
25351;SDS011;13304;48.464;8.712;2023-03-01T04:13:12;32.97;;;17.87;;
25351;SDS011;13304;48.464;8.712;2023-03-01T04:15:42;28.37;;;17.13;;
25351;SDS011;13304;48.464;8.712;2023-03-01T04:18:16;31.60;;;17.27;;
25351;SDS011;13304;48.464;8.712;2023-03-01T04:20:43;27.83;;;16.50;;
25351;SDS011;13304;48.464;8.712;2023-03-01T04:23:14;31.37;;;17.27;;
25351;SDS011;13304;48.464;8.712;2023-03-01T04:25:46;33.00;;;17.90;;
25351;SDS011;13304;48.464;8.712;2023-03-01T04:28:22;34.23;;;17.83;;
25351;SDS011;13304;48.464;8.712;2023-03-01T04:30:50;29.67;;;17.70;;
25351;SDS011;13304;48.464;8.712;2023-03-01T04:33:17;33.80;;;17.80;;
25351;SDS011;13304;48.464;8.712;2023-03-01T04:35:44;32.30;;;17.97;;
25351;SDS011;13304;48.464;8.712;2023-03-01T04:38:10;31.23;;;17.60;;
25351;SDS011;13304;48.464;8.712;2023-03-01T04:40:36;30.93;;;17.57;;
25351;SDS011;13304;48.464;8.712;2023-03-01T04:43:02;28.67;;;16.73;;
25351;SDS011;13304;48.464;8.712;2023-03-01T04:45:29;33.63;;;18.47;;
25351;SDS011;13304;48.464;8.712;2023-03-01T04:47:56;32.07;;;18.40;;
25351;SDS011;13304;48.464;8.712;2023-03-01T04:50:23;32.27;;;17.97;;
25351;SDS011;13304;48.464;8.712;2023-03-01T04:52:50;32.57;;;19.23;;
25351;SDS011;13304;48.464;8.712;2023-03-01T04:55:17;33.07;;;17.87;;
25351;SDS011;13304;48.464;8.712;2023-03-01T04:57:43;35.73;;;19.40;;
25351;SDS011;13304;48.464;8.712;2023-03-01T05:00:10;29.63;;;18.00;;
25351;SDS011;13304;48.464;8.712;2023-03-01T05:05:19;35.27;;;19.53;;
25351;SDS011;13304;48.464;8.712;2023-03-01T05:07:46;35.95;;;18.73;;
25351;SDS011;13304;48.464;8.712;2023-03-01T05:10:12;34.83;;;19.37;;
25351;SDS011;13304;48.464;8.712;2023-03-01T05:12:38;35.30;;;19.70;;
25351;SDS011;13304;48.464;8.712;2023-03-01T05:15:04;37.13;;;20.40;;
25351;SDS011;13304;48.464;8.712;2023-03-01T05:17:32;41.67;;;19.50;;
25351;SDS011;13304;48.464;8.712;2023-03-01T05:19:59;37.10;;;20.00;;
25351;SDS011;13304;48.464;8.712;2023-03-01T05:22:25;35.23;;;19.53;;
25351;SDS011;13304;48.464;8.712;2023-03-01T05:24:51;39.20;;;19.43;;
25351;SDS011;13304;48.464;8.712;2023-03-01T05:27:19;36.30;;;19.20;;
25351;SDS011;13304;48.464;8.712;2023-03-01T05:29:47;39.23;;;20.47;;
25351;SDS011;13304;48.464;8.712;2023-03-01T05:32:13;40.07;;;19.57;;
25351;SDS011;13304;48.464;8.712;2023-03-01T05:34:40;36.33;;;20.17;;
25351;SDS011;13304;48.464;8.712;2023-03-01T05:37:07;36.37;;;19.43;;
25351;SDS011;13304;48.464;8.712;2023-03-01T05:39:33;33.60;;;18.83;;
25351;SDS011;13304;48.464;8.712;2023-03-01T05:42:00;40.40;;;21.57;;
25351;SDS011;13304;48.464;8.712;2023-03-01T05:44:27;45.80;;;23.43;;
25351;SDS011;13304;48.464;8.712;2023-03-01T05:46:54;40.67;;;22.97;;
25351;SDS011;13304;48.464;8.712;2023-03-01T05:49:21;45.77;;;20.33;;
25351;SDS011;13304;48.464;8.712;2023-03-01T05:51:51;38.17;;;20.80;;
25351;SDS011;13304;48.464;8.712;2023-03-01T05:54:19;40.30;;;20.30;;
25351;SDS011;13304;48.464;8.712;2023-03-01T05:56:45;45.27;;;22.93;;
25351;SDS011;13304;48.464;8.712;2023-03-01T05:59:12;40.23;;;23.13;;
25351;SDS011;13304;48.464;8.712;2023-03-01T06:01:39;43.93;;;23.87;;
25351;SDS011;13304;48.464;8.712;2023-03-01T06:04:04;39.73;;;23.40;;
25351;SDS011;13304;48.464;8.712;2023-03-01T06:06:34;39.40;;;21.30;;
25351;SDS011;13304;48.464;8.712;2023-03-01T06:09:02;56.57;;;27.73;;
25351;SDS011;13304;48.464;8.712;2023-03-01T06:11:28;43.73;;;22.60;;
25351;SDS011;13304;48.464;8.712;2023-03-01T06:13:54;44.83;;;21.67;;
25351;SDS011;13304;48.464;8.712;2023-03-01T06:16:20;39.07;;;21.20;;
25351;SDS011;13304;48.464;8.712;2023-03-01T06:18:45;38.27;;;21.70;;
25351;SDS011;13304;48.464;8.712;2023-03-01T06:21:13;35.90;;;20.67;;
25351;SDS011;13304;48.464;8.712;2023-03-01T06:23:39;38.87;;;20.97;;
25351;SDS011;13304;48.464;8.712;2023-03-01T06:26:06;40.27;;;21.77;;
25351;SDS011;13304;48.464;8.712;2023-03-01T06:28:32;37.63;;;21.07;;
25351;SDS011;13304;48.464;8.712;2023-03-01T06:30:58;37.97;;;21.13;;
25351;SDS011;13304;48.464;8.712;2023-03-01T06:33:24;39.33;;;21.20;;
25351;SDS011;13304;48.464;8.712;2023-03-01T06:35:50;39.40;;;21.70;;
25351;SDS011;13304;48.464;8.712;2023-03-01T06:38:19;35.65;;;20.35;;
25351;SDS011;13304;48.464;8.712;2023-03-01T06:40:45;35.40;;;20.63;;
25351;SDS011;13304;48.464;8.712;2023-03-01T06:43:16;40.10;;;21.63;;
25351;SDS011;13304;48.464;8.712;2023-03-01T06:45:42;35.97;;;20.97;;
25351;SDS011;13304;48.464;8.712;2023-03-01T06:48:08;39.03;;;21.17;;
25351;SDS011;13304;48.464;8.712;2023-03-01T06:50:34;38.47;;;21.73;;
25351;SDS011;13304;48.464;8.712;2023-03-01T06:53:00;39.63;;;21.43;;
25351;SDS011;13304;48.464;8.712;2023-03-01T06:55:27;37.03;;;21.87;;
25351;SDS011;13304;48.464;8.712;2023-03-01T06:57:59;37.27;;;20.83;;
25351;SDS011;13304;48.464;8.712;2023-03-01T07:00:26;33.60;;;20.13;;
25351;SDS011;13304;48.464;8.712;2023-03-01T07:02:52;39.30;;;21.93;;
25351;SDS011;13304;48.464;8.712;2023-03-01T07:05:18;37.43;;;21.23;;
25351;SDS011;13304;48.464;8.712;2023-03-01T07:07:44;38.43;;;21.37;;
25351;SDS011;13304;48.464;8.712;2023-03-01T07:10:10;38.40;;;20.67;;
25351;SDS011;13304;48.464;8.712;2023-03-01T07:12:37;37.73;;;22.03;;
25351;SDS011;13304;48.464;8.712;2023-03-01T07:15:03;35.20;;;20.87;;
25351;SDS011;13304;48.464;8.712;2023-03-01T07:17:29;37.67;;;21.00;;
25351;SDS011;13304;48.464;8.712;2023-03-01T07:19:56;44.60;;;23.00;;
25351;SDS011;13304;48.464;8.712;2023-03-01T07:22:21;40.93;;;20.90;;
25351;SDS011;13304;48.464;8.712;2023-03-01T07:24:47;38.37;;;21.40;;
25351;SDS011;13304;48.464;8.712;2023-03-01T07:27:13;39.63;;;21.83;;
25351;SDS011;13304;48.464;8.712;2023-03-01T07:29:39;43.23;;;21.40;;
25351;SDS011;13304;48.464;8.712;2023-03-01T07:32:05;33.77;;;19.80;;
25351;SDS011;13304;48.464;8.712;2023-03-01T07:34:31;34.13;;;20.50;;
25351;SDS011;13304;48.464;8.712;2023-03-01T07:36:57;36.93;;;21.27;;
25351;SDS011;13304;48.464;8.712;2023-03-01T07:39:23;37.27;;;21.97;;
25351;SDS011;13304;48.464;8.712;2023-03-01T07:41:49;42.13;;;23.27;;
25351;SDS011;13304;48.464;8.712;2023-03-01T07:44:15;36.20;;;20.20;;
25351;SDS011;13304;48.464;8.712;2023-03-01T07:46:42;40.60;;;22.40;;
25351;SDS011;13304;48.464;8.712;2023-03-01T07:49:09;44.27;;;21.47;;
25351;SDS011;13304;48.464;8.712;2023-03-01T07:51:35;37.67;;;21.27;;
25351;SDS011;13304;48.464;8.712;2023-03-01T07:54:01;38.70;;;21.97;;
25351;SDS011;13304;48.464;8.712;2023-03-01T07:56:27;37.13;;;21.20;;
25351;SDS011;13304;48.464;8.712;2023-03-01T07:58:52;39.73;;;20.77;;
25351;SDS011;13304;48.464;8.712;2023-03-01T08:01:19;38.30;;;21.20;;
25351;SDS011;13304;48.464;8.712;2023-03-01T08:03:46;37.60;;;21.43;;
25351;SDS011;13304;48.464;8.712;2023-03-01T08:06:14;40.63;;;22.53;;
25351;SDS011;13304;48.464;8.712;2023-03-01T08:08:41;39.33;;;21.27;;
25351;SDS011;13304;48.464;8.712;2023-03-01T08:11:10;38.20;;;21.90;;
25351;SDS011;13304;48.464;8.712;2023-03-01T08:13:36;43.08;;;23.00;;
25351;SDS011;13304;48.464;8.712;2023-03-01T08:16:03;40.13;;;22.63;;
25351;SDS011;13304;48.464;8.712;2023-03-01T08:18:30;40.50;;;22.60;;
25351;SDS011;13304;48.464;8.712;2023-03-01T08:21:00;38.60;;;22.13;;
25351;SDS011;13304;48.464;8.712;2023-03-01T08:23:30;41.80;;;21.77;;
25351;SDS011;13304;48.464;8.712;2023-03-01T08:26:02;43.17;;;22.37;;
25351;SDS011;13304;48.464;8.712;2023-03-01T08:28:32;39.03;;;21.60;;
25351;SDS011;13304;48.464;8.712;2023-03-01T08:30:58;43.03;;;22.30;;
25351;SDS011;13304;48.464;8.712;2023-03-01T08:33:24;45.23;;;21.47;;
25351;SDS011;13304;48.464;8.712;2023-03-01T08:35:51;40.63;;;22.07;;
25351;SDS011;13304;48.464;8.712;2023-03-01T08:38:16;40.50;;;21.07;;
25351;SDS011;13304;48.464;8.712;2023-03-01T08:40:42;37.53;;;21.57;;
25351;SDS011;13304;48.464;8.712;2023-03-01T08:43:08;43.50;;;23.10;;
25351;SDS011;13304;48.464;8.712;2023-03-01T08:45:36;40.13;;;21.77;;
25351;SDS011;13304;48.464;8.712;2023-03-01T08:48:02;35.83;;;21.67;;
25351;SDS011;13304;48.464;8.712;2023-03-01T08:50:27;39.07;;;22.63;;
25351;SDS011;13304;48.464;8.712;2023-03-01T08:52:53;45.33;;;23.40;;
25351;SDS011;13304;48.464;8.712;2023-03-01T08:55:19;65.90;;;27.50;;
25351;SDS011;13304;48.464;8.712;2023-03-01T08:57:44;44.60;;;23.73;;
25351;SDS011;13304;48.464;8.712;2023-03-01T09:00:10;43.13;;;23.60;;
25351;SDS011;13304;48.464;8.712;2023-03-01T09:02:37;43.27;;;24.37;;
25351;SDS011;13304;48.464;8.712;2023-03-01T09:05:03;43.70;;;24.80;;
25351;SDS011;13304;48.464;8.712;2023-03-01T09:07:29;39.93;;;22.87;;
25351;SDS011;13304;48.464;8.712;2023-03-01T09:09:55;45.13;;;23.40;;
25351;SDS011;13304;48.464;8.712;2023-03-01T09:12:21;39.27;;;22.50;;
25351;SDS011;13304;48.464;8.712;2023-03-01T09:14:47;35.83;;;21.60;;
25351;SDS011;13304;48.464;8.712;2023-03-01T09:17:12;37.53;;;21.97;;
25351;SDS011;13304;48.464;8.712;2023-03-01T09:19:38;36.50;;;22.30;;
25351;SDS011;13304;48.464;8.712;2023-03-01T09:22:04;38.57;;;22.83;;
25351;SDS011;13304;48.464;8.712;2023-03-01T09:24:30;41.30;;;22.73;;
25351;SDS011;13304;48.464;8.712;2023-03-01T09:26:56;37.67;;;22.03;;
25351;SDS011;13304;48.464;8.712;2023-03-01T09:29:22;43.70;;;22.33;;
25351;SDS011;13304;48.464;8.712;2023-03-01T09:31:48;40.37;;;21.90;;
25351;SDS011;13304;48.464;8.712;2023-03-01T09:34:14;44.77;;;22.13;;
25351;SDS011;13304;48.464;8.712;2023-03-01T09:36:44;37.10;;;21.97;;
25351;SDS011;13304;48.464;8.712;2023-03-01T09:39:10;38.50;;;21.93;;
25351;SDS011;13304;48.464;8.712;2023-03-01T09:41:44;41.80;;;23.87;;
25351;SDS011;13304;48.464;8.712;2023-03-01T09:47:17;37.83;;;21.73;;
25351;SDS011;13304;48.464;8.712;2023-03-01T09:49:50;37.40;;;21.77;;
25351;SDS011;13304;48.464;8.712;2023-03-01T09:52:25;37.78;;;22.00;;
25351;SDS011;13304;48.464;8.712;2023-03-01T09:55:14;37.22;;;22.70;;
25351;SDS011;13304;48.464;8.712;2023-03-01T09:57:53;33.55;;;20.40;;
25351;SDS011;13304;48.464;8.712;2023-03-01T10:00:42;33.58;;;21.00;;
25351;SDS011;13304;48.464;8.712;2023-03-01T10:06:01;37.88;;;21.42;;
25351;SDS011;13304;48.464;8.712;2023-03-01T10:11:13;42.90;;;22.25;;
25351;SDS011;13304;48.464;8.712;2023-03-01T10:14:03;35.40;;;20.48;;
25351;SDS011;13304;48.464;8.712;2023-03-01T10:16:51;36.33;;;22.20;;
25351;SDS011;13304;48.464;8.712;2023-03-01T10:19:38;40.53;;;21.65;;
25351;SDS011;13304;48.464;8.712;2023-03-01T10:22:30;36.35;;;22.42;;
25351;SDS011;13304;48.464;8.712;2023-03-01T10:24:59;39.65;;;22.20;;
25351;SDS011;13304;48.464;8.712;2023-03-01T10:30:30;36.25;;;21.52;;
25351;SDS011;13304;48.464;8.712;2023-03-01T10:33:01;37.75;;;22.27;;
25351;SDS011;13304;48.464;8.712;2023-03-01T10:35:29;37.45;;;21.88;;
25351;SDS011;13304;48.464;8.712;2023-03-01T10:40:27;36.42;;;21.15;;
25351;SDS011;13304;48.464;8.712;2023-03-01T10:42:53;36.00;;;20.92;;
25351;SDS011;13304;48.464;8.712;2023-03-01T10:50:41;35.40;;;21.67;;
25351;SDS011;13304;48.464;8.712;2023-03-01T10:56:02;39.55;;;22.13;;
25351;SDS011;13304;48.464;8.712;2023-03-01T10:58:39;36.58;;;21.73;;
25351;SDS011;13304;48.464;8.712;2023-03-01T11:01:33;35.53;;;20.42;;
25351;SDS011;13304;48.464;8.712;2023-03-01T11:06:36;35.50;;;20.95;;
25351;SDS011;13304;48.464;8.712;2023-03-01T11:09:17;38.25;;;23.65;;
25351;SDS011;13304;48.464;8.712;2023-03-01T11:11:43;37.40;;;22.00;;
25351;SDS011;13304;48.464;8.712;2023-03-01T11:14:15;40.05;;;21.58;;
25351;SDS011;13304;48.464;8.712;2023-03-01T11:16:47;34.55;;;20.60;;
25351;SDS011;13304;48.464;8.712;2023-03-01T11:19:22;34.30;;;20.75;;
25351;SDS011;13304;48.464;8.712;2023-03-01T11:21:52;34.55;;;21.30;;
25351;SDS011;13304;48.464;8.712;2023-03-01T11:24:43;36.72;;;21.70;;
25351;SDS011;13304;48.464;8.712;2023-03-01T11:27:26;35.60;;;21.17;;
25351;SDS011;13304;48.464;8.712;2023-03-01T11:32:35;34.13;;;20.80;;
25351;SDS011;13304;48.464;8.712;2023-03-01T11:37:40;32.60;;;20.13;;
25351;SDS011;13304;48.464;8.712;2023-03-01T11:40:26;35.58;;;21.73;;
25351;SDS011;13304;48.464;8.712;2023-03-01T11:43:11;33.42;;;20.40;;
25351;SDS011;13304;48.464;8.712;2023-03-01T11:51:47;34.85;;;20.70;;
25351;SDS011;13304;48.464;8.712;2023-03-01T11:57:37;36.75;;;21.30;;
25351;SDS011;13304;48.464;8.712;2023-03-01T12:03:47;32.78;;;19.85;;
25351;SDS011;13304;48.464;8.712;2023-03-01T12:25:38;32.15;;;18.55;;
25351;SDS011;13304;48.464;8.712;2023-03-01T12:28:38;33.22;;;20.55;;
25351;SDS011;13304;48.464;8.712;2023-03-01T12:42:31;34.15;;;20.23;;
25351;SDS011;13304;48.464;8.712;2023-03-01T12:50:37;40.42;;;20.30;;
25351;SDS011;13304;48.464;8.712;2023-03-01T12:53:04;35.63;;;20.42;;
25351;SDS011;13304;48.464;8.712;2023-03-01T12:55:37;37.67;;;20.45;;
25351;SDS011;13304;48.464;8.712;2023-03-01T13:01:19;32.88;;;19.83;;
25351;SDS011;13304;48.464;8.712;2023-03-01T13:09:14;34.75;;;19.70;;
25351;SDS011;13304;48.464;8.712;2023-03-01T13:11:48;32.83;;;18.70;;
25351;SDS011;13304;48.464;8.712;2023-03-01T13:16:46;33.80;;;18.98;;
25351;SDS011;13304;48.464;8.712;2023-03-01T13:19:36;30.08;;;18.05;;
25351;SDS011;13304;48.464;8.712;2023-03-01T13:22:24;31.02;;;17.90;;
25351;SDS011;13304;48.464;8.712;2023-03-01T13:25:00;29.95;;;18.15;;
25351;SDS011;13304;48.464;8.712;2023-03-01T13:27:48;28.75;;;16.63;;
25351;SDS011;13304;48.464;8.712;2023-03-01T13:35:48;29.30;;;16.63;;
25351;SDS011;13304;48.464;8.712;2023-03-01T13:41:11;33.90;;;18.23;;
25351;SDS011;13304;48.464;8.712;2023-03-01T13:43:42;33.47;;;20.65;;
25351;SDS011;13304;48.464;8.712;2023-03-01T13:46:12;36.10;;;20.38;;
25351;SDS011;13304;48.464;8.712;2023-03-01T13:48:40;28.88;;;18.48;;
25351;SDS011;13304;48.464;8.712;2023-03-01T13:51:10;33.63;;;19.08;;
25351;SDS011;13304;48.464;8.712;2023-03-01T13:53:40;31.38;;;19.42;;
25351;SDS011;13304;48.464;8.712;2023-03-01T13:56:20;36.50;;;19.08;;
25351;SDS011;13304;48.464;8.712;2023-03-01T13:58:53;32.55;;;18.17;;
25351;SDS011;13304;48.464;8.712;2023-03-01T14:01:30;31.92;;;18.05;;
25351;SDS011;13304;48.464;8.712;2023-03-01T14:04:00;30.90;;;18.08;;
25351;SDS011;13304;48.464;8.712;2023-03-01T14:06:32;32.03;;;19.25;;
25351;SDS011;13304;48.464;8.712;2023-03-01T14:12:04;30.92;;;17.90;;
25351;SDS011;13304;48.464;8.712;2023-03-01T14:14:45;30.63;;;17.77;;
25351;SDS011;13304;48.464;8.712;2023-03-01T14:20:22;31.55;;;18.45;;
25351;SDS011;13304;48.464;8.712;2023-03-01T14:22:53;31.95;;;18.10;;
25351;SDS011;13304;48.464;8.712;2023-03-01T14:27:51;30.17;;;17.65;;
25351;SDS011;13304;48.464;8.712;2023-03-01T14:30:43;29.45;;;17.95;;
25351;SDS011;13304;48.464;8.712;2023-03-01T14:33:45;29.80;;;17.83;;
25351;SDS011;13304;48.464;8.712;2023-03-01T14:36:09;33.17;;;17.60;;
25351;SDS011;13304;48.464;8.712;2023-03-01T14:41:20;30.33;;;17.88;;
25351;SDS011;13304;48.464;8.712;2023-03-01T14:43:52;28.83;;;17.90;;
25351;SDS011;13304;48.464;8.712;2023-03-01T14:46:26;33.28;;;18.42;;
25351;SDS011;13304;48.464;8.712;2023-03-01T14:48:58;33.58;;;17.30;;
25351;SDS011;13304;48.464;8.712;2023-03-01T14:51:36;33.35;;;18.17;;
25351;SDS011;13304;48.464;8.712;2023-03-01T14:54:04;29.13;;;16.77;;
25351;SDS011;13304;48.464;8.712;2023-03-01T14:56:45;28.92;;;16.63;;
25351;SDS011;13304;48.464;8.712;2023-03-01T14:59:12;28.30;;;16.75;;
25351;SDS011;13304;48.464;8.712;2023-03-01T15:01:38;30.08;;;17.23;;
25351;SDS011;13304;48.464;8.712;2023-03-01T15:04:06;30.67;;;16.98;;
25351;SDS011;13304;48.464;8.712;2023-03-01T15:06:37;30.67;;;16.50;;
25351;SDS011;13304;48.464;8.712;2023-03-01T15:09:04;27.40;;;17.13;;
25351;SDS011;13304;48.464;8.712;2023-03-01T15:11:30;26.67;;;17.50;;
25351;SDS011;13304;48.464;8.712;2023-03-01T15:13:58;27.80;;;16.60;;
25351;SDS011;13304;48.464;8.712;2023-03-01T15:16:25;26.83;;;16.33;;
25351;SDS011;13304;48.464;8.712;2023-03-01T15:18:59;24.90;;;16.25;;
25351;SDS011;13304;48.464;8.712;2023-03-01T15:21:34;24.30;;;16.23;;
25351;SDS011;13304;48.464;8.712;2023-03-01T15:24:04;42.55;;;20.75;;
25351;SDS011;13304;48.464;8.712;2023-03-01T15:26:49;26.38;;;16.60;;
25351;SDS011;13304;48.464;8.712;2023-03-01T15:29:24;25.25;;;16.55;;
25351;SDS011;13304;48.464;8.712;2023-03-01T15:32:20;25.90;;;16.80;;
25351;SDS011;13304;48.464;8.712;2023-03-01T15:35:46;27.35;;;16.95;;
25351;SDS011;13304;48.464;8.712;2023-03-01T15:38:49;28.30;;;17.63;;
25351;SDS011;13304;48.464;8.712;2023-03-01T15:41:25;31.85;;;18.17;;
25351;SDS011;13304;48.464;8.712;2023-03-01T15:43:51;33.97;;;18.65;;
25351;SDS011;13304;48.464;8.712;2023-03-01T15:46:33;34.10;;;20.25;;
25351;SDS011;13304;48.464;8.712;2023-03-01T15:52:03;34.90;;;21.00;;
25351;SDS011;13304;48.464;8.712;2023-03-01T15:54:29;39.85;;;24.10;;
25351;SDS011;13304;48.464;8.712;2023-03-01T15:56:55;36.90;;;20.08;;
25351;SDS011;13304;48.464;8.712;2023-03-01T15:59:21;33.83;;;19.73;;
25351;SDS011;13304;48.464;8.712;2023-03-01T16:01:47;33.92;;;18.85;;
25351;SDS011;13304;48.464;8.712;2023-03-01T16:04:14;37.03;;;20.55;;
25351;SDS011;13304;48.464;8.712;2023-03-01T16:06:46;30.80;;;19.77;;
25351;SDS011;13304;48.464;8.712;2023-03-01T16:09:18;32.70;;;20.35;;
25351;SDS011;13304;48.464;8.712;2023-03-01T16:11:46;32.78;;;19.17;;
25351;SDS011;13304;48.464;8.712;2023-03-01T16:14:12;33.40;;;20.67;;
25351;SDS011;13304;48.464;8.712;2023-03-01T16:16:39;34.53;;;20.20;;
25351;SDS011;13304;48.464;8.712;2023-03-01T16:19:05;37.35;;;19.63;;
25351;SDS011;13304;48.464;8.712;2023-03-01T16:21:31;38.83;;;21.45;;
25351;SDS011;13304;48.464;8.712;2023-03-01T16:23:57;39.20;;;21.63;;
25351;SDS011;13304;48.464;8.712;2023-03-01T16:26:22;45.25;;;23.75;;
25351;SDS011;13304;48.464;8.712;2023-03-01T16:28:48;39.83;;;21.13;;
25351;SDS011;13304;48.464;8.712;2023-03-01T16:31:16;36.83;;;22.00;;
25351;SDS011;13304;48.464;8.712;2023-03-01T16:33:44;35.38;;;20.90;;
25351;SDS011;13304;48.464;8.712;2023-03-01T16:36:15;34.72;;;20.42;;
25351;SDS011;13304;48.464;8.712;2023-03-01T16:38:42;36.72;;;20.70;;
25351;SDS011;13304;48.464;8.712;2023-03-01T16:41:13;33.83;;;20.27;;
25351;SDS011;13304;48.464;8.712;2023-03-01T16:43:40;33.72;;;20.52;;
25351;SDS011;13304;48.464;8.712;2023-03-01T16:46:13;43.33;;;21.45;;